Airfield :
LOGIN :

Register | Disclaimer

   EN    FR    IT 

 










Legend :    VFR   Marginal VFR   IFR   Intensive IFR   Very Intensive IFR
Visi :
Ceiling :
>= 8 km
>= 3000ft
5 to 8 km
1000 to 3000 ft
1500m to 5 km
500 to 1000 ft
800 to 1500m
200 to 500 ft
< 800m
< 200 ft
Symbols :   Thunderstorms  Fog  Heavy snow  Heavy precipitations  Wind > 20 kt
SIGMETs :     Misc.  Thunderstorms  Icing  Turbulence  Mountain Waves  Volcanic Ashes







- Airport Elevation : 288 ft
- IATA code : BZZ


EGVN - RAF Brize Norton

CURRENT METAR :
  • 250650Z 14004KT 2000 RA FEW002 BKN003 OVC014 18/18 Q1017 TEMPO 1500 RADZ SCT002 RMK YLO2 TEMPO AMB

EXPIRED METARs :
  • 250550Z 06003KT 2500 -RA BKN004 OVC010 18/18 Q1016 BECMG 4000 FEW004 BKN008
  • 250520Z 03006KT 3000 -RA BKN004 OVC017 17/17 Q1016 RERA BECMG 5000 FEW004 BKN008
  • 250450Z 34004KT 3800 RA BKN005 BKN015 17/16 Q1016 RERA TEMPO 5000 -RA BKN015
  • 250430Z 27002KT 3000 +RA FEW007 SCT018 BKN042 17/16 Q1017 YLO1 TEMPO 5000 -RA RMK YLO1 TEMPO WHT
  • 250420Z 32002KT 3500 RA FEW009 BKN042 17/16 Q1017 TEMPO 5000 -RA RMK YLO1 TEMPO WHT

TAF AMD TAF EGVN
Valid from the 25 at 06:00 until the 26 at 06:00 UTC


250530Z 2506/2606 VRB03KT 9999 BKN045
TEMPO 2506/2512 4500 -RA BKN008
PROB40
TEMPO 2506/2510 3000 RA BKN004
PROB30
TEMPO 2506/2510 2000 RADZ
PROB40
TEMPO 2512/2517 7000 -SHRA SCT015
BECMG 2517/2520 BKN010
No reported NOTAMs for that airfield.
1 SIGMET reported for the London FIR (EGTT) :
 
Embedded thunderstorms
EGTT SIGMET 02 VALID 250500/250900 EGRR
EGTT LONDON FIR EMBD TS FCST WI N5130 E00200 - N5107 E00200 - N5100 E00128 - N5045 E00033 - N5130 W00054 - N5312 W00009 - N5245 E00303 - N5130 E00200 TOP FL360 MOV NNE 20KT WKN=



MET'MAP, your aeronautical weather chart ! - Copyright ORBIFLY December 2007 - Disclaimer

ORBIFLY MET'MAP TEAM :

Programming & Development : Alexandra Zaïnal
Concept & Development : Baudouin d'Aumeries
Co-Development & Prog : Marc-Olivier Méhu
Technical & hardware support : Manuel Goepfert

Contact : metmap@orbifly.com




SOURCES & CREDITS :

   NOAA